Pagrindinis puslapis
METAR-TAF:

METAR-TAF

Oro uostai :

Kuritiba, Parana, Brazilija

platuma: 25-26S, ilguma: 049-16W, Aukštis: 924 m

Dabartinis oras

Ataskaita buvo paskelbta 4 valandos ir 17 minutes, ne 01:00 UTC
Vėjas 4 kt iš Šiaurės
Temperatūra 11°C
Drėgmė 82%
Slėgis 1023 hPa
Matomumas 10 km arba daugiau
nėra debesų žemiau 1500 m ir nėra kamuolinių lietaus debesų

METAR: SBBI 290100Z 35004KT CAVOK 11/08 Q1023

Laikas: 02:17 (05:17 UTC)

Prognozė

Ataskaita buvo paskelbta 8 valandos ir 17 minutes, ne 21:00 UTC
Prognozė galioja nuo 29 metu 00 UTC su 29 metu 12 UTC
Vėjas 3 kt iš Rytų/Šiaurės Rytų
Matomumas 10 km arba daugiau
nėra debesų žemiau 1500 m ir nėra kamuolinių lietaus debesų
Tikimybė 40%
nuo 29 metu 06 UTC su 29 metu 11 UTC
Matomumas: 0800 m
Su prošvaistėmis ne aukštis 200 ft
rūkas
Tikimybė 40%
nuo 29 metu 11 UTC su 29 metu 12 UTC
Matomumas: 3000 m
Išsisklaidę debesys ne aukštis 400 ft
rūkana

TAF: SBBI 282100Z 2900/2912 06003KT CAVOK TX12/2900Z TN06/2908Z PROB40 2906/2911 0800 FG BKN002 PROB40 2911/2912 3000 BR SCT004 RMK PDW

Orai ataskaitas ir orų prognozės (METAR, TAF).

turimą stotys yra geltonos ir raudonos taškus žemėlapyje.

Perkelti pele per norėdami pamatyti stoties vardą.

Tada spustelėkite, norėdami matyti oro stebėjimo ir prognozės.

Norėdami pakeisti žemėlapį: spustelėkite ant žalios mygtukų su juodo kryžiaus žemyn,; žalią mygtuką su brūkšneliu, jei norite nutolinti; arba žalių rodyklių gretimoms žemėlapius.


METAR-TAF: